sensor_id;sensor_type;location;lat;lon;timestamp;temperature;humidity
9975;DHT22;5028;50.974;4.968;2024-03-25T00:00:35;4.60;99.90
9975;DHT22;5028;50.974;4.968;2024-03-25T00:03:02;4.60;99.90
9975;DHT22;5028;50.974;4.968;2024-03-25T00:05:29;4.60;99.90
9975;DHT22;5028;50.974;4.968;2024-03-25T00:07:58;4.50;99.90
9975;DHT22;5028;50.974;4.968;2024-03-25T00:10:25;4.50;99.90
9975;DHT22;5028;50.974;4.968;2024-03-25T00:12:53;4.50;99.90
9975;DHT22;5028;50.974;4.968;2024-03-25T00:15:21;4.60;99.90
9975;DHT22;5028;50.974;4.968;2024-03-25T00:17:49;4.50;99.90
9975;DHT22;5028;50.974;4.968;2024-03-25T00:20:16;4.50;99.90
9975;DHT22;5028;50.974;4.968;2024-03-25T00:22:43;4.50;99.90
9975;DHT22;5028;50.974;4.968;2024-03-25T00:25:10;4.50;99.90
9975;DHT22;5028;50.974;4.968;2024-03-25T00:27:38;4.50;99.90
9975;DHT22;5028;50.974;4.968;2024-03-25T00:30:06;4.40;99.90
9975;DHT22;5028;50.974;4.968;2024-03-25T00:32:35;4.40;99.90
9975;DHT22;5028;50.974;4.968;2024-03-25T00:35:01;4.40;99.90
9975;DHT22;5028;50.974;4.968;2024-03-25T00:37:28;4.30;99.90
9975;DHT22;5028;50.974;4.968;2024-03-25T00:39:54;4.30;99.90
9975;DHT22;5028;50.974;4.968;2024-03-25T00:42:22;4.30;99.90
9975;DHT22;5028;50.974;4.968;2024-03-25T00:44:49;4.30;99.90
9975;DHT22;5028;50.974;4.968;2024-03-25T00:47:16;4.20;99.90
9975;DHT22;5028;50.974;4.968;2024-03-25T00:49:43;4.20;99.90
9975;DHT22;5028;50.974;4.968;2024-03-25T00:52:10;4.20;99.90
9975;DHT22;5028;50.974;4.968;2024-03-25T00:54:36;4.30;99.90
9975;DHT22;5028;50.974;4.968;2024-03-25T00:57:04;4.20;99.90
9975;DHT22;5028;50.974;4.968;2024-03-25T00:59:30;4.20;99.90
9975;DHT22;5028;50.974;4.968;2024-03-25T01:01:58;4.20;99.90
9975;DHT22;5028;50.974;4.968;2024-03-25T01:04:25;4.20;99.90
9975;DHT22;5028;50.974;4.968;2024-03-25T01:06:52;4.20;99.90
9975;DHT22;5028;50.974;4.968;2024-03-25T01:09:18;4.20;99.90
9975;DHT22;5028;50.974;4.968;2024-03-25T01:11:45;4.20;99.90
9975;DHT22;5028;50.974;4.968;2024-03-25T01:14:11;4.20;99.90
9975;DHT22;5028;50.974;4.968;2024-03-25T01:16:38;4.10;99.90
9975;DHT22;5028;50.974;4.968;2024-03-25T01:19:06;4.10;99.90
9975;DHT22;5028;50.974;4.968;2024-03-25T01:21:33;4.10;99.90
9975;DHT22;5028;50.974;4.968;2024-03-25T01:23:59;4.10;99.90
9975;DHT22;5028;50.974;4.968;2024-03-25T01:26:27;4.10;99.90
9975;DHT22;5028;50.974;4.968;2024-03-25T01:28:54;4.10;99.90
9975;DHT22;5028;50.974;4.968;2024-03-25T01:31:21;4.10;99.90
9975;DHT22;5028;50.974;4.968;2024-03-25T01:33:48;4.10;99.90
9975;DHT22;5028;50.974;4.968;2024-03-25T01:36:16;4.10;99.90
9975;DHT22;5028;50.974;4.968;2024-03-25T01:38:43;4.10;99.90
9975;DHT22;5028;50.974;4.968;2024-03-25T01:41:11;4.10;99.90
9975;DHT22;5028;50.974;4.968;2024-03-25T01:43:38;4.10;99.90
9975;DHT22;5028;50.974;4.968;2024-03-25T01:46:05;4.10;99.90
9975;DHT22;5028;50.974;4.968;2024-03-25T01:48:34;4.20;99.90
9975;DHT22;5028;50.974;4.968;2024-03-25T01:51:00;4.10;99.90
9975;DHT22;5028;50.974;4.968;2024-03-25T01:53:30;4.10;99.90
9975;DHT22;5028;50.974;4.968;2024-03-25T01:55:58;4.20;99.90
9975;DHT22;5028;50.974;4.968;2024-03-25T01:58:26;4.20;99.90
9975;DHT22;5028;50.974;4.968;2024-03-25T02:00:52;4.10;99.90
9975;DHT22;5028;50.974;4.968;2024-03-25T02:03:20;4.20;99.90
9975;DHT22;5028;50.974;4.968;2024-03-25T02:05:50;4.10;99.90
9975;DHT22;5028;50.974;4.968;2024-03-25T02:08:19;4.20;99.90
9975;DHT22;5028;50.974;4.968;2024-03-25T02:10:46;4.10;99.90
9975;DHT22;5028;50.974;4.968;2024-03-25T02:13:15;4.10;99.90
9975;DHT22;5028;50.974;4.968;2024-03-25T02:15:41;4.10;99.90
9975;DHT22;5028;50.974;4.968;2024-03-25T02:18:08;4.10;99.90
9975;DHT22;5028;50.974;4.968;2024-03-25T02:20:34;4.10;99.90
9975;DHT22;5028;50.974;4.968;2024-03-25T02:23:02;4.10;99.90
9975;DHT22;5028;50.974;4.968;2024-03-25T02:25:31;4.10;99.90
9975;DHT22;5028;50.974;4.968;2024-03-25T02:28:01;4.00;99.90
9975;DHT22;5028;50.974;4.968;2024-03-25T02:30:27;4.00;99.90
9975;DHT22;5028;50.974;4.968;2024-03-25T02:32:54;4.00;99.90
9975;DHT22;5028;50.974;4.968;2024-03-25T02:35:22;3.90;99.90
9975;DHT22;5028;50.974;4.968;2024-03-25T02:37:50;3.90;99.90
9975;DHT22;5028;50.974;4.968;2024-03-25T02:40:17;3.90;99.90
9975;DHT22;5028;50.974;4.968;2024-03-25T02:42:45;3.90;99.90
9975;DHT22;5028;50.974;4.968;2024-03-25T02:45:13;4.00;99.90
9975;DHT22;5028;50.974;4.968;2024-03-25T02:47:40;4.00;99.90
9975;DHT22;5028;50.974;4.968;2024-03-25T02:50:07;4.00;99.90
9975;DHT22;5028;50.974;4.968;2024-03-25T02:52:34;4.00;99.90
9975;DHT22;5028;50.974;4.968;2024-03-25T02:55:01;4.00;99.90
9975;DHT22;5028;50.974;4.968;2024-03-25T02:57:28;4.00;99.90
9975;DHT22;5028;50.974;4.968;2024-03-25T02:59:54;4.00;99.90
9975;DHT22;5028;50.974;4.968;2024-03-25T03:02:23;4.00;99.90
9975;DHT22;5028;50.974;4.968;2024-03-25T03:04:49;4.00;99.90
9975;DHT22;5028;50.974;4.968;2024-03-25T03:07:16;4.00;99.90
9975;DHT22;5028;50.974;4.968;2024-03-25T03:09:42;4.00;99.90
9975;DHT22;5028;50.974;4.968;2024-03-25T03:12:10;4.00;99.90
9975;DHT22;5028;50.974;4.968;2024-03-25T03:14:36;4.00;99.90
9975;DHT22;5028;50.974;4.968;2024-03-25T03:17:03;4.10;99.90
9975;DHT22;5028;50.974;4.968;2024-03-25T03:19:32;4.10;99.90
9975;DHT22;5028;50.974;4.968;2024-03-25T03:21:59;4.10;99.90
9975;DHT22;5028;50.974;4.968;2024-03-25T03:24:25;4.10;99.90
9975;DHT22;5028;50.974;4.968;2024-03-25T03:26:53;4.10;99.90
9975;DHT22;5028;50.974;4.968;2024-03-25T03:29:20;4.10;99.90
9975;DHT22;5028;50.974;4.968;2024-03-25T03:31:47;4.00;99.90
9975;DHT22;5028;50.974;4.968;2024-03-25T03:34:14;4.00;99.90
9975;DHT22;5028;50.974;4.968;2024-03-25T03:36:43;4.10;99.90
9975;DHT22;5028;50.974;4.968;2024-03-25T03:39:09;4.00;99.90
9975;DHT22;5028;50.974;4.968;2024-03-25T03:41:36;4.00;99.90
9975;DHT22;5028;50.974;4.968;2024-03-25T03:44:03;4.00;99.90
9975;DHT22;5028;50.974;4.968;2024-03-25T03:46:30;4.00;99.90
9975;DHT22;5028;50.974;4.968;2024-03-25T03:48:56;4.00;99.90
9975;DHT22;5028;50.974;4.968;2024-03-25T03:51:23;4.00;99.90
9975;DHT22;5028;50.974;4.968;2024-03-25T03:53:51;4.00;99.90
9975;DHT22;5028;50.974;4.968;2024-03-25T03:56:18;4.00;99.90
9975;DHT22;5028;50.974;4.968;2024-03-25T03:58:44;4.00;99.90
9975;DHT22;5028;50.974;4.968;2024-03-25T04:01:15;4.10;99.90
9975;DHT22;5028;50.974;4.968;2024-03-25T04:03:41;4.00;99.90
9975;DHT22;5028;50.974;4.968;2024-03-25T04:06:10;4.00;99.90
9975;DHT22;5028;50.974;4.968;2024-03-25T04:08:36;4.00;99.90
9975;DHT22;5028;50.974;4.968;2024-03-25T04:11:05;3.90;99.90
9975;DHT22;5028;50.974;4.968;2024-03-25T04:13:32;3.90;99.90
9975;DHT22;5028;50.974;4.968;2024-03-25T04:16:04;4.00;99.90
9975;DHT22;5028;50.974;4.968;2024-03-25T04:18:31;3.90;99.90
9975;DHT22;5028;50.974;4.968;2024-03-25T04:20:59;3.90;99.90
9975;DHT22;5028;50.974;4.968;2024-03-25T04:23:26;3.90;99.90
9975;DHT22;5028;50.974;4.968;2024-03-25T04:25:54;3.90;99.90
9975;DHT22;5028;50.974;4.968;2024-03-25T04:28:21;3.90;99.90
9975;DHT22;5028;50.974;4.968;2024-03-25T04:30:53;3.90;99.90
9975;DHT22;5028;50.974;4.968;2024-03-25T04:33:19;3.80;99.90
9975;DHT22;5028;50.974;4.968;2024-03-25T04:35:46;3.80;99.90
9975;DHT22;5028;50.974;4.968;2024-03-25T04:38:15;3.80;99.90
9975;DHT22;5028;50.974;4.968;2024-03-25T04:40:41;3.80;99.90
9975;DHT22;5028;50.974;4.968;2024-03-25T04:43:08;3.80;99.90
9975;DHT22;5028;50.974;4.968;2024-03-25T04:45:35;3.80;99.90
9975;DHT22;5028;50.974;4.968;2024-03-25T04:48:02;3.80;99.90
9975;DHT22;5028;50.974;4.968;2024-03-25T04:50:28;3.80;99.90
9975;DHT22;5028;50.974;4.968;2024-03-25T04:52:56;3.80;99.90
9975;DHT22;5028;50.974;4.968;2024-03-25T04:55:22;3.80;99.90
9975;DHT22;5028;50.974;4.968;2024-03-25T04:57:48;3.80;99.90
9975;DHT22;5028;50.974;4.968;2024-03-25T05:00:15;3.80;99.90
9975;DHT22;5028;50.974;4.968;2024-03-25T05:02:42;3.70;99.90
9975;DHT22;5028;50.974;4.968;2024-03-25T05:05:09;3.80;99.90
9975;DHT22;5028;50.974;4.968;2024-03-25T05:07:35;3.80;99.90
9975;DHT22;5028;50.974;4.968;2024-03-25T05:10:02;3.80;99.90
9975;DHT22;5028;50.974;4.968;2024-03-25T05:12:28;3.70;99.90
9975;DHT22;5028;50.974;4.968;2024-03-25T05:14:54;3.70;99.90
9975;DHT22;5028;50.974;4.968;2024-03-25T05:17:20;3.70;99.90
9975;DHT22;5028;50.974;4.968;2024-03-25T05:19:48;3.70;99.90
9975;DHT22;5028;50.974;4.968;2024-03-25T05:22:14;3.70;99.90
9975;DHT22;5028;50.974;4.968;2024-03-25T05:24:40;3.80;99.90
9975;DHT22;5028;50.974;4.968;2024-03-25T05:27:07;3.80;99.90
9975;DHT22;5028;50.974;4.968;2024-03-25T05:29:33;3.70;99.90
9975;DHT22;5028;50.974;4.968;2024-03-25T05:32:00;3.70;99.90
9975;DHT22;5028;50.974;4.968;2024-03-25T05:34:27;3.80;99.90
9975;DHT22;5028;50.974;4.968;2024-03-25T05:36:55;3.70;99.90
9975;DHT22;5028;50.974;4.968;2024-03-25T05:39:22;3.70;99.90
9975;DHT22;5028;50.974;4.968;2024-03-25T05:41:48;3.70;99.90
9975;DHT22;5028;50.974;4.968;2024-03-25T05:44:15;3.70;99.90
9975;DHT22;5028;50.974;4.968;2024-03-25T05:46:41;3.70;99.90
9975;DHT22;5028;50.974;4.968;2024-03-25T05:49:07;3.70;99.90
9975;DHT22;5028;50.974;4.968;2024-03-25T05:51:33;3.70;99.90
9975;DHT22;5028;50.974;4.968;2024-03-25T05:54:01;3.70;99.90
9975;DHT22;5028;50.974;4.968;2024-03-25T05:56:28;3.70;99.90
9975;DHT22;5028;50.974;4.968;2024-03-25T05:58:56;3.70;99.90
9975;DHT22;5028;50.974;4.968;2024-03-25T06:01:22;3.80;99.90
9975;DHT22;5028;50.974;4.968;2024-03-25T06:03:49;3.80;99.90
9975;DHT22;5028;50.974;4.968;2024-03-25T06:06:15;3.90;99.90
9975;DHT22;5028;50.974;4.968;2024-03-25T06:08:41;3.90;99.90
9975;DHT22;5028;50.974;4.968;2024-03-25T06:11:09;3.90;99.90
9975;DHT22;5028;50.974;4.968;2024-03-25T06:13:35;4.00;99.90
9975;DHT22;5028;50.974;4.968;2024-03-25T06:16:02;4.00;99.90
9975;DHT22;5028;50.974;4.968;2024-03-25T06:18:28;4.00;99.90
9975;DHT22;5028;50.974;4.968;2024-03-25T06:20:54;4.10;99.90
9975;DHT22;5028;50.974;4.968;2024-03-25T06:23:24;4.10;99.90
9975;DHT22;5028;50.974;4.968;2024-03-25T06:25:51;4.10;99.90
9975;DHT22;5028;50.974;4.968;2024-03-25T06:28:19;4.20;99.90
9975;DHT22;5028;50.974;4.968;2024-03-25T06:30:46;4.20;99.90
9975;DHT22;5028;50.974;4.968;2024-03-25T06:33:30;4.30;99.90
9975;DHT22;5028;50.974;4.968;2024-03-25T06:36:15;4.30;99.90
9975;DHT22;5028;50.974;4.968;2024-03-25T06:38:42;4.40;99.90
9975;DHT22;5028;50.974;4.968;2024-03-25T06:41:08;4.40;99.90
9975;DHT22;5028;50.974;4.968;2024-03-25T06:43:36;4.50;99.90
9975;DHT22;5028;50.974;4.968;2024-03-25T06:46:02;4.60;99.90
9975;DHT22;5028;50.974;4.968;2024-03-25T06:48:28;4.60;99.90
9975;DHT22;5028;50.974;4.968;2024-03-25T06:50:55;4.60;99.90
9975;DHT22;5028;50.974;4.968;2024-03-25T06:53:22;4.60;99.90
9975;DHT22;5028;50.974;4.968;2024-03-25T06:55:53;4.70;99.90
9975;DHT22;5028;50.974;4.968;2024-03-25T06:58:20;4.70;99.90
9975;DHT22;5028;50.974;4.968;2024-03-25T07:00:48;4.80;99.90
9975;DHT22;5028;50.974;4.968;2024-03-25T07:03:15;4.80;99.90
9975;DHT22;5028;50.974;4.968;2024-03-25T07:05:41;4.80;99.90
9975;DHT22;5028;50.974;4.968;2024-03-25T07:08:07;4.80;99.90
9975;DHT22;5028;50.974;4.968;2024-03-25T07:10:33;4.90;99.90
9975;DHT22;5028;50.974;4.968;2024-03-25T07:12:59;4.90;99.90
9975;DHT22;5028;50.974;4.968;2024-03-25T07:15:26;5.00;99.90
9975;DHT22;5028;50.974;4.968;2024-03-25T07:17:53;5.00;99.90
9975;DHT22;5028;50.974;4.968;2024-03-25T07:20:20;5.10;99.90
9975;DHT22;5028;50.974;4.968;2024-03-25T07:22:46;5.10;99.90
9975;DHT22;5028;50.974;4.968;2024-03-25T07:25:12;5.20;99.90
9975;DHT22;5028;50.974;4.968;2024-03-25T07:27:39;5.20;99.90
9975;DHT22;5028;50.974;4.968;2024-03-25T07:30:06;5.20;99.90
9975;DHT22;5028;50.974;4.968;2024-03-25T07:32:33;5.30;99.90
9975;DHT22;5028;50.974;4.968;2024-03-25T07:35:00;5.40;99.90
9975;DHT22;5028;50.974;4.968;2024-03-25T07:37:26;5.50;99.90
9975;DHT22;5028;50.974;4.968;2024-03-25T07:39:53;5.50;99.90
9975;DHT22;5028;50.974;4.968;2024-03-25T07:42:19;5.60;99.90
9975;DHT22;5028;50.974;4.968;2024-03-25T07:44:45;5.60;99.90
9975;DHT22;5028;50.974;4.968;2024-03-25T07:47:11;5.70;99.90
9975;DHT22;5028;50.974;4.968;2024-03-25T07:49:38;5.80;99.90
9975;DHT22;5028;50.974;4.968;2024-03-25T07:52:06;5.90;99.90
9975;DHT22;5028;50.974;4.968;2024-03-25T07:54:32;5.90;99.90
9975;DHT22;5028;50.974;4.968;2024-03-25T07:56:58;6.00;99.90
9975;DHT22;5028;50.974;4.968;2024-03-25T07:59:25;6.10;99.90
9975;DHT22;5028;50.974;4.968;2024-03-25T08:01:51;6.20;99.90
9975;DHT22;5028;50.974;4.968;2024-03-25T08:04:17;6.30;99.90
9975;DHT22;5028;50.974;4.968;2024-03-25T08:06:43;6.40;99.90
9975;DHT22;5028;50.974;4.968;2024-03-25T08:09:11;6.40;99.90
9975;DHT22;5028;50.974;4.968;2024-03-25T08:11:38;6.50;99.90
9975;DHT22;5028;50.974;4.968;2024-03-25T08:14:04;6.60;99.90
9975;DHT22;5028;50.974;4.968;2024-03-25T08:16:30;6.60;99.90
9975;DHT22;5028;50.974;4.968;2024-03-25T08:18:56;6.70;99.90
9975;DHT22;5028;50.974;4.968;2024-03-25T08:21:23;6.70;99.90
9975;DHT22;5028;50.974;4.968;2024-03-25T08:23:49;6.80;99.90
9975;DHT22;5028;50.974;4.968;2024-03-25T08:26:17;6.90;99.90
9975;DHT22;5028;50.974;4.968;2024-03-25T08:28:43;7.00;99.90
9975;DHT22;5028;50.974;4.968;2024-03-25T08:31:09;7.00;99.90
9975;DHT22;5028;50.974;4.968;2024-03-25T08:33:35;7.10;99.90
9975;DHT22;5028;50.974;4.968;2024-03-25T08:36:02;7.10;99.90
9975;DHT22;5028;50.974;4.968;2024-03-25T08:38:28;7.00;99.90
9975;DHT22;5028;50.974;4.968;2024-03-25T08:40:55;7.10;99.90
9975;DHT22;5028;50.974;4.968;2024-03-25T08:43:22;7.10;99.90
9975;DHT22;5028;50.974;4.968;2024-03-25T08:45:49;7.20;99.90
9975;DHT22;5028;50.974;4.968;2024-03-25T08:48:15;7.30;99.90
9975;DHT22;5028;50.974;4.968;2024-03-25T08:50:41;7.30;99.90
9975;DHT22;5028;50.974;4.968;2024-03-25T08:53:07;7.30;99.90
9975;DHT22;5028;50.974;4.968;2024-03-25T08:55:33;7.40;99.90
9975;DHT22;5028;50.974;4.968;2024-03-25T08:58:00;7.50;99.90
9975;DHT22;5028;50.974;4.968;2024-03-25T09:00:27;7.50;99.90
9975;DHT22;5028;50.974;4.968;2024-03-25T09:02:54;7.60;99.90
9975;DHT22;5028;50.974;4.968;2024-03-25T09:05:20;7.70;99.90
9975;DHT22;5028;50.974;4.968;2024-03-25T09:07:49;7.70;99.90
9975;DHT22;5028;50.974;4.968;2024-03-25T09:10:16;7.80;99.90
9975;DHT22;5028;50.974;4.968;2024-03-25T09:13:00;7.90;99.90
9975;DHT22;5028;50.974;4.968;2024-03-25T09:15:28;8.00;99.90
9975;DHT22;5028;50.974;4.968;2024-03-25T09:17:54;8.10;99.90
9975;DHT22;5028;50.974;4.968;2024-03-25T09:20:20;8.20;99.90
9975;DHT22;5028;50.974;4.968;2024-03-25T09:22:47;8.30;99.90
9975;DHT22;5028;50.974;4.968;2024-03-25T09:25:13;8.40;99.90
9975;DHT22;5028;50.974;4.968;2024-03-25T09:27:40;8.50;99.90
9975;DHT22;5028;50.974;4.968;2024-03-25T09:30:07;8.60;99.90
9975;DHT22;5028;50.974;4.968;2024-03-25T09:32:35;8.80;99.90
9975;DHT22;5028;50.974;4.968;2024-03-25T09:35:01;9.00;99.90
9975;DHT22;5028;50.974;4.968;2024-03-25T09:37:27;9.20;99.90
9975;DHT22;5028;50.974;4.968;2024-03-25T09:39:53;9.40;99.90
9975;DHT22;5028;50.974;4.968;2024-03-25T09:42:25;9.60;99.90
9975;DHT22;5028;50.974;4.968;2024-03-25T09:44:53;9.70;99.90
9975;DHT22;5028;50.974;4.968;2024-03-25T09:47:20;9.90;99.90
9975;DHT22;5028;50.974;4.968;2024-03-25T09:49:48;10.00;99.90
9975;DHT22;5028;50.974;4.968;2024-03-25T09:52:14;10.20;99.90
9975;DHT22;5028;50.974;4.968;2024-03-25T09:54:40;10.20;99.90
9975;DHT22;5028;50.974;4.968;2024-03-25T09:57:07;10.40;99.90
9975;DHT22;5028;50.974;4.968;2024-03-25T09:59:34;10.60;99.90
9975;DHT22;5028;50.974;4.968;2024-03-25T10:02:01;10.70;99.90
9975;DHT22;5028;50.974;4.968;2024-03-25T10:04:28;10.80;99.90
9975;DHT22;5028;50.974;4.968;2024-03-25T10:06:55;11.00;99.90
9975;DHT22;5028;50.974;4.968;2024-03-25T10:09:22;11.20;99.90
9975;DHT22;5028;50.974;4.968;2024-03-25T10:11:49;11.30;99.90
9975;DHT22;5028;50.974;4.968;2024-03-25T10:14:16;11.40;99.90
9975;DHT22;5028;50.974;4.968;2024-03-25T10:16:42;11.40;99.90
9975;DHT22;5028;50.974;4.968;2024-03-25T10:19:09;11.50;99.90
9975;DHT22;5028;50.974;4.968;2024-03-25T10:21:35;11.50;99.90
9975;DHT22;5028;50.974;4.968;2024-03-25T10:24:04;11.60;99.90
9975;DHT22;5028;50.974;4.968;2024-03-25T10:26:32;11.70;99.90
9975;DHT22;5028;50.974;4.968;2024-03-25T10:29:02;11.90;99.90
9975;DHT22;5028;50.974;4.968;2024-03-25T10:31:29;11.90;99.90
9975;DHT22;5028;50.974;4.968;2024-03-25T10:33:56;12.10;99.90
9975;DHT22;5028;50.974;4.968;2024-03-25T10:36:22;12.10;99.90
9975;DHT22;5028;50.974;4.968;2024-03-25T10:38:49;12.10;99.90
9975;DHT22;5028;50.974;4.968;2024-03-25T10:41:18;12.30;99.90
9975;DHT22;5028;50.974;4.968;2024-03-25T10:43:47;12.50;99.90
9975;DHT22;5028;50.974;4.968;2024-03-25T10:46:18;12.50;99.90
9975;DHT22;5028;50.974;4.968;2024-03-25T10:48:51;12.60;99.90
9975;DHT22;5028;50.974;4.968;2024-03-25T10:51:21;12.70;99.90
9975;DHT22;5028;50.974;4.968;2024-03-25T10:53:49;12.90;99.90
9975;DHT22;5028;50.974;4.968;2024-03-25T10:56:20;13.10;99.90
9975;DHT22;5028;50.974;4.968;2024-03-25T10:58:48;13.20;99.90
9975;DHT22;5028;50.974;4.968;2024-03-25T11:01:16;13.30;99.90
9975;DHT22;5028;50.974;4.968;2024-03-25T11:03:43;13.30;99.90
9975;DHT22;5028;50.974;4.968;2024-03-25T11:06:10;13.40;99.90
9975;DHT22;5028;50.974;4.968;2024-03-25T11:08:37;13.40;99.90
9975;DHT22;5028;50.974;4.968;2024-03-25T11:11:03;13.50;99.90
9975;DHT22;5028;50.974;4.968;2024-03-25T11:13:31;13.70;99.90
9975;DHT22;5028;50.974;4.968;2024-03-25T11:15:58;13.60;99.90
9975;DHT22;5028;50.974;4.968;2024-03-25T11:18:24;13.70;99.90
9975;DHT22;5028;50.974;4.968;2024-03-25T11:21:09;13.90;99.90
9975;DHT22;5028;50.974;4.968;2024-03-25T11:23:37;14.10;99.90
9975;DHT22;5028;50.974;4.968;2024-03-25T11:26:04;14.10;99.90
9975;DHT22;5028;50.974;4.968;2024-03-25T11:28:31;14.00;99.90
9975;DHT22;5028;50.974;4.968;2024-03-25T11:30:57;14.20;99.90
9975;DHT22;5028;50.974;4.968;2024-03-25T11:33:24;14.30;99.90
9975;DHT22;5028;50.974;4.968;2024-03-25T11:35:50;14.10;99.90
9975;DHT22;5028;50.974;4.968;2024-03-25T11:38:16;14.20;99.90
9975;DHT22;5028;50.974;4.968;2024-03-25T11:40:44;14.50;99.90
9975;DHT22;5028;50.974;4.968;2024-03-25T11:43:18;14.40;99.90
9975;DHT22;5028;50.974;4.968;2024-03-25T11:45:47;14.60;99.90
9975;DHT22;5028;50.974;4.968;2024-03-25T11:48:14;14.50;99.90
9975;DHT22;5028;50.974;4.968;2024-03-25T11:50:40;14.40;99.90
9975;DHT22;5028;50.974;4.968;2024-03-25T11:53:07;14.60;99.90
9975;DHT22;5028;50.974;4.968;2024-03-25T11:55:33;14.70;99.90
9975;DHT22;5028;50.974;4.968;2024-03-25T11:58:00;14.80;99.90
9975;DHT22;5028;50.974;4.968;2024-03-25T12:00:26;14.40;99.90
9975;DHT22;5028;50.974;4.968;2024-03-25T12:02:54;14.50;99.90
9975;DHT22;5028;50.974;4.968;2024-03-25T12:05:20;14.70;99.90
9975;DHT22;5028;50.974;4.968;2024-03-25T12:07:47;14.90;99.90
9975;DHT22;5028;50.974;4.968;2024-03-25T12:10:13;14.80;99.90
9975;DHT22;5028;50.974;4.968;2024-03-25T12:12:57;14.60;99.90
9975;DHT22;5028;50.974;4.968;2024-03-25T12:15:24;14.60;99.90
9975;DHT22;5028;50.974;4.968;2024-03-25T12:17:50;14.60;99.90
9975;DHT22;5028;50.974;4.968;2024-03-25T12:20:19;14.50;99.90
9975;DHT22;5028;50.974;4.968;2024-03-25T12:22:45;14.30;99.90
9975;DHT22;5028;50.974;4.968;2024-03-25T12:25:12;14.30;99.90
9975;DHT22;5028;50.974;4.968;2024-03-25T12:27:39;14.20;99.90
9975;DHT22;5028;50.974;4.968;2024-03-25T12:30:06;14.10;99.90
9975;DHT22;5028;50.974;4.968;2024-03-25T12:32:37;14.10;99.90
9975;DHT22;5028;50.974;4.968;2024-03-25T12:35:07;14.00;99.90
9975;DHT22;5028;50.974;4.968;2024-03-25T12:37:36;13.80;99.90
9975;DHT22;5028;50.974;4.968;2024-03-25T12:40:04;13.70;99.90
9975;DHT22;5028;50.974;4.968;2024-03-25T12:42:31;14.00;99.90
9975;DHT22;5028;50.974;4.968;2024-03-25T12:44:58;14.20;99.90
9975;DHT22;5028;50.974;4.968;2024-03-25T12:47:24;14.50;99.90
9975;DHT22;5028;50.974;4.968;2024-03-25T12:49:50;14.40;99.90
9975;DHT22;5028;50.974;4.968;2024-03-25T12:52:16;14.40;99.90
9975;DHT22;5028;50.974;4.968;2024-03-25T12:54:44;14.20;99.90
9975;DHT22;5028;50.974;4.968;2024-03-25T12:57:11;14.10;99.90
9975;DHT22;5028;50.974;4.968;2024-03-25T12:59:37;14.10;99.90
9975;DHT22;5028;50.974;4.968;2024-03-25T13:02:04;14.10;99.90
9975;DHT22;5028;50.974;4.968;2024-03-25T13:04:30;14.40;99.90
9975;DHT22;5028;50.974;4.968;2024-03-25T13:06:57;14.50;99.90
9975;DHT22;5028;50.974;4.968;2024-03-25T13:09:23;14.50;99.90
9975;DHT22;5028;50.974;4.968;2024-03-25T13:11:51;14.40;99.90
9975;DHT22;5028;50.974;4.968;2024-03-25T13:14:17;14.40;99.90
9975;DHT22;5028;50.974;4.968;2024-03-25T13:16:43;14.50;99.90
9975;DHT22;5028;50.974;4.968;2024-03-25T13:19:09;14.50;99.90
9975;DHT22;5028;50.974;4.968;2024-03-25T13:21:36;14.60;99.90
9975;DHT22;5028;50.974;4.968;2024-03-25T13:24:03;14.80;99.90
9975;DHT22;5028;50.974;4.968;2024-03-25T13:26:29;14.80;99.90
9975;DHT22;5028;50.974;4.968;2024-03-25T13:28:57;14.60;99.90
9975;DHT22;5028;50.974;4.968;2024-03-25T13:31:24;14.40;99.90
9975;DHT22;5028;50.974;4.968;2024-03-25T13:33:50;14.20;99.90
9975;DHT22;5028;50.974;4.968;2024-03-25T13:36:16;14.10;99.90
9975;DHT22;5028;50.974;4.968;2024-03-25T13:38:42;14.20;99.90
9975;DHT22;5028;50.974;4.968;2024-03-25T13:41:17;14.60;99.90
9975;DHT22;5028;50.974;4.968;2024-03-25T13:43:44;15.00;99.90
9975;DHT22;5028;50.974;4.968;2024-03-25T13:46:14;15.40;99.90
9975;DHT22;5028;50.974;4.968;2024-03-25T13:48:40;15.50;99.90
9975;DHT22;5028;50.974;4.968;2024-03-25T13:51:07;15.50;99.90
9975;DHT22;5028;50.974;4.968;2024-03-25T13:53:33;15.60;99.90
9975;DHT22;5028;50.974;4.968;2024-03-25T13:55:59;15.60;99.90
9975;DHT22;5028;50.974;4.968;2024-03-25T13:58:26;15.60;99.90
9975;DHT22;5028;50.974;4.968;2024-03-25T14:00:52;15.50;99.90
9975;DHT22;5028;50.974;4.968;2024-03-25T14:03:20;15.30;99.90
9975;DHT22;5028;50.974;4.968;2024-03-25T14:05:46;15.20;99.90
9975;DHT22;5028;50.974;4.968;2024-03-25T14:08:12;15.20;99.90
9975;DHT22;5028;50.974;4.968;2024-03-25T14:10:39;15.10;99.90
9975;DHT22;5028;50.974;4.968;2024-03-25T14:13:05;14.80;99.90
9975;DHT22;5028;50.974;4.968;2024-03-25T14:15:31;14.80;99.90
9975;DHT22;5028;50.974;4.968;2024-03-25T14:17:58;14.80;99.90
9975;DHT22;5028;50.974;4.968;2024-03-25T14:20:25;14.90;99.90
9975;DHT22;5028;50.974;4.968;2024-03-25T14:22:51;14.90;99.90
9975;DHT22;5028;50.974;4.968;2024-03-25T14:25:18;14.90;99.90
9975;DHT22;5028;50.974;4.968;2024-03-25T14:27:44;15.00;99.90
9975;DHT22;5028;50.974;4.968;2024-03-25T14:30:11;15.10;99.90
9975;DHT22;5028;50.974;4.968;2024-03-25T14:32:38;14.90;99.90
9975;DHT22;5028;50.974;4.968;2024-03-25T14:35:04;14.70;99.90
9975;DHT22;5028;50.974;4.968;2024-03-25T14:37:33;14.50;99.90
9975;DHT22;5028;50.974;4.968;2024-03-25T14:39:59;14.30;99.90
9975;DHT22;5028;50.974;4.968;2024-03-25T14:42:26;14.10;99.90
9975;DHT22;5028;50.974;4.968;2024-03-25T14:44:52;14.10;99.90
9975;DHT22;5028;50.974;4.968;2024-03-25T14:47:18;14.10;99.90
9975;DHT22;5028;50.974;4.968;2024-03-25T14:49:45;14.10;99.90
9975;DHT22;5028;50.974;4.968;2024-03-25T14:52:11;14.10;99.90
9975;DHT22;5028;50.974;4.968;2024-03-25T14:54:39;14.10;99.90
9975;DHT22;5028;50.974;4.968;2024-03-25T14:57:05;14.00;99.90
9975;DHT22;5028;50.974;4.968;2024-03-25T14:59:31;14.00;99.90
9975;DHT22;5028;50.974;4.968;2024-03-25T15:01:59;14.00;99.90
9975;DHT22;5028;50.974;4.968;2024-03-25T17:17:03;11.70;99.90
9975;DHT22;5028;50.974;4.968;2024-03-25T17:19:29;11.70;99.90
9975;DHT22;5028;50.974;4.968;2024-03-25T17:21:56;11.60;99.90
9975;DHT22;5028;50.974;4.968;2024-03-25T17:24:22;11.60;99.90
9975;DHT22;5028;50.974;4.968;2024-03-25T17:26:49;11.50;99.90
9975;DHT22;5028;50.974;4.968;2024-03-25T17:29:15;11.50;99.90
9975;DHT22;5028;50.974;4.968;2024-03-25T17:31:41;11.40;99.90
9975;DHT22;5028;50.974;4.968;2024-03-25T17:34:09;11.40;99.90
9975;DHT22;5028;50.974;4.968;2024-03-25T17:36:35;11.40;99.90
9975;DHT22;5028;50.974;4.968;2024-03-25T17:39:01;11.30;99.90
9975;DHT22;5028;50.974;4.968;2024-03-25T17:41:28;11.30;99.90
9975;DHT22;5028;50.974;4.968;2024-03-25T17:43:54;11.20;99.90
9975;DHT22;5028;50.974;4.968;2024-03-25T17:46:21;11.20;99.90
9975;DHT22;5028;50.974;4.968;2024-03-25T17:48:48;11.10;99.90
9975;DHT22;5028;50.974;4.968;2024-03-25T17:51:16;11.00;99.90
9975;DHT22;5028;50.974;4.968;2024-03-25T17:53:42;11.00;99.90
9975;DHT22;5028;50.974;4.968;2024-03-25T17:56:08;10.90;99.90
9975;DHT22;5028;50.974;4.968;2024-03-25T17:58:34;10.90;99.90
9975;DHT22;5028;50.974;4.968;2024-03-25T18:01:01;10.80;99.90
9975;DHT22;5028;50.974;4.968;2024-03-25T18:03:27;10.80;99.90
9975;DHT22;5028;50.974;4.968;2024-03-25T18:05:53;10.70;99.90
9975;DHT22;5028;50.974;4.968;2024-03-25T18:08:21;10.70;99.90
9975;DHT22;5028;50.974;4.968;2024-03-25T18:10:47;10.60;99.90
9975;DHT22;5028;50.974;4.968;2024-03-25T18:13:14;10.60;99.90
9975;DHT22;5028;50.974;4.968;2024-03-25T18:15:45;10.60;99.90
9975;DHT22;5028;50.974;4.968;2024-03-25T18:18:11;10.50;99.90
9975;DHT22;5028;50.974;4.968;2024-03-25T18:20:38;10.40;99.90
9975;DHT22;5028;50.974;4.968;2024-03-25T18:23:04;10.40;99.90